| time (UTC) | temp C | wind direction | speed KPH | gust KPH | rain 1hr cm | rain 24hr cm | rain mn cm | humidity % | barometer mb |
| 20260502211602 | 17 | 248 | 17.7 | 25.7 | 0.00 | 0.00 | 0.00 | 36 | 1012.5 |
| 20260502210056 | 16 | 239 | 17.7 | 25.7 | 0.00 | 0.00 | 0.00 | 41 | 1012.7 |
| 20260502204554 | 16 | 250 | 20.9 | 32.2 | 0.00 | 0.00 | 0.00 | 35 | 1012.9 |
| 20260502203105 | 16 | 256 | 14.5 | 20.9 | 0.00 | 0.00 | 0.00 | 38 | 1013.2 |
| 20260502201601 | 16 | 236 | 20.9 | 33.8 | 0.00 | 0.00 | 0.00 | 38 | 1013.6 |
| 20260502200050 | 15 | 229 | 19.3 | 29.0 | 0.00 | 0.00 | 0.00 | 38 | 1013.8 |
| 20260502194557 | 15 | 233 | 16.1 | 24.1 | 0.00 | 0.00 | 0.00 | 37 | 1014.0 |
| 20260502193054 | 15 | 243 | 16.1 | 20.9 | 0.00 | 0.00 | 0.00 | 40 | 1014.4 |
| 20260502191553 | 15 | 232 | 9.7 | 25.7 | 0.00 | 0.00 | 0.00 | 37 | 1014.8 |
| 20260502190051 | 14 | 249 | 11.3 | 20.9 | 0.00 | 0.00 | 0.00 | 38 | 1015.1 |
| 20260502184549 | 13 | 250 | 14.5 | 19.3 | 0.00 | 0.00 | 0.00 | 41 | 1015.4 |
| 20260502183053 | 13 | 236 | 16.1 | 20.9 | 0.00 | 0.00 | 0.00 | 39 | 1015.9 |
| 20260502181553 | 13 | 245 | 12.9 | 20.9 | 0.00 | 0.00 | 0.00 | 40 | 1016.1 |
| 20260502180104 | 13 | 247 | 11.3 | 22.5 | 0.00 | 0.00 | 0.00 | 41 | 1016.3 |
| 20260502163103 | 11 | 233 | 12.9 | 20.9 | 0.00 | 0.00 | 0.00 | 43 | 1017.7 |
| 20260502161555 | 11 | 249 | 12.9 | 22.5 | 0.00 | 0.00 | 0.00 | 45 | 1017.9 |
| 20260502160105 | 11 | 253 | 12.9 | 20.9 | 0.00 | 0.00 | 0.00 | 46 | 1018.2 |
| 20260502151551 | 10 | 259 | 17.7 | 24.1 | 0.00 | 0.00 | 0.00 | 48 | 1018.5 |
| 20260502123050 | 6 | 269 | 12.9 | 16.1 | 0.00 | 0.00 | 0.00 | 61 | 1018.9 |
| 20260502121555 | 6 | 264 | 8.0 | 11.3 | 0.00 | 0.00 | 0.00 | 61 | 1018.7 |
| 20260502113047 | 6 | 264 | 8.0 | 12.9 | 0.00 | 0.00 | 0.00 | 61 | 1018.7 |
| 20260502111549 | 6 | 282 | 11.3 | 14.5 | 0.00 | 0.00 | 0.00 | 61 | 1018.6 |
| 20260502110056 | 6 | 267 | 12.9 | 17.7 | 0.00 | 0.00 | 0.00 | 60 | 1018.6 |
| 20260502104554 | 6 | 278 | 9.7 | 12.9 | 0.00 | 0.00 | 0.00 | 61 | 1018.6 |
| 20260502103050 | 6 | 278 | 8.0 | 12.9 | 0.00 | 0.00 | 0.00 | 61 | 1018.6 |
| 20260502101604 | 6 | 265 | 9.7 | 12.9 | 0.00 | 0.00 | 0.00 | 62 | 1018.5 |
| 20260502100106 | 6 | 240 | 9.7 | 12.9 | 0.00 | 0.00 | 0.00 | 63 | 1018.5 |
| 20260502070058 | 7 | 253 | 12.9 | 19.3 | 0.00 | 0.00 | 0.00 | 56 | 1018.8 |
| 20260502064617 | 8 | 262 | 14.5 | 17.7 | 0.00 | 0.00 | 0.00 | 54 | 1018.8 |
| 20260502063059 | 8 | 264 | 12.9 | 16.1 | 0.00 | 0.00 | 0.00 | 56 | 1018.9 |
| 20260502061551 | 8 | 248 | 12.9 | 17.7 | 0.00 | 0.00 | 0.00 | 54 | 1019.0 |
| 20260502060054 | 8 | 259 | 11.3 | 16.1 | 0.00 | 0.00 | 0.00 | 54 | 1018.9 |
| 20260502054549 | 8 | 262 | 12.9 | 16.1 | 0.00 | 0.00 | 0.00 | 54 | 1019.0 |
| 20260502053058 | 8 | 256 | 12.9 | 16.1 | 0.00 | 0.00 | 0.00 | 59 | 1019.0 |
| 20260502051548 | 8 | 269 | 14.5 | 17.7 | 0.00 | 0.00 | 0.00 | 55 | 1019.1 |
| 20260502050051 | 7 | 285 | 0.0 | 6.4 | 0.00 | 0.00 | 0.00 | 68 | 1019.0 |
| 20260502044544 | 7 | 0 | 0.0 | 1.6 | 0.00 | 0.00 | 0.00 | 65 | 1018.9 |
| 20260502043123 | 7 | 0 | 0.0 | 3.2 | 0.00 | 0.00 | 0.00 | 66 | 1018.9 |
| 20260502041559 | 7 | 0 | 0.0 | 1.6 | 0.00 | 0.00 | 0.00 | 64 | 1018.9 |
| 20260502040050 | 6 | 230 | 0.0 | 1.6 | 0.00 | 0.00 | 0.00 | 65 | 1018.9 |
| 20260502034552 | 6 | 0 | 0.0 | 1.6 | 0.00 | 0.00 | 0.00 | 70 | 1019.0 |
| 20260502033054 | 7 | 0 | 0.0 | 1.6 | 0.00 | 0.00 | 0.00 | 69 | 1019.0 |
| 20260502031547 | 7 | 0 | 0.0 | 1.6 | 0.00 | 0.00 | 0.00 | 66 | 1019.0 |
| 20260502030057 | 7 | 0 | 0.0 | 1.6 | 0.00 | 0.00 | 0.00 | 65 | 1019.0 |
| 20260502004551 | 11 | 328 | 1.6 | 4.8 | 0.00 | 0.00 | 0.00 | 35 | 1018.4 |
| 20260502003049 | 11 | 341 | 4.8 | 9.7 | 0.00 | 0.00 | 0.00 | 41 | 1018.5 |
| 20260502001552 | 10 | 338 | 6.4 | 9.7 | 0.00 | 0.00 | 0.00 | 38 | 1018.4 |
| 20260502000046 | 11 | 320 | 4.8 | 9.7 | 0.00 | 0.00 | 0.00 | 38 | 1018.4 |
| 20260501234557 | 10 | 337 | 9.7 | 11.3 | 0.00 | 0.00 | 0.00 | 42 | 1018.4 |
| 20260501233102 | 11 | 291 | 11.3 | 19.3 | 0.00 | 0.00 | 0.00 | 41 | 1018.4 |
| 20260501231551 | 10 | 293 | 9.7 | 17.7 | 0.00 | 0.00 | 0.00 | 38 | 1018.4 |
| 20260501230049 | 10 | 309 | 11.3 | 20.9 | 0.00 | 0.00 | 0.00 | 38 | 1018.4 |
| 20260501224551 | 10 | 276 | 14.5 | 25.7 | 0.00 | 0.00 | 0.00 | 41 | 1018.4 |
| 20260501223053 | 10 | 310 | 6.4 | 14.5 | 0.00 | 0.00 | 0.00 | 37 | 1018.5 |
| 20260501221551 | 10 | 314 | 9.7 | 16.1 | 0.00 | 0.00 | 0.00 | 42 | 1018.6 |
| 20260501220108 | 10 | 314 | 9.7 | 22.5 | 0.00 | 0.00 | 0.00 | 39 | 1018.6 |
| 20260501214548 | 10 | 338 | 8.0 | 16.1 | 0.00 | 0.00 | 0.00 | 39 | 1018.6 |
| 20260501213051 | 10 | 305 | 1.6 | 9.7 | 0.00 | 0.00 | 0.00 | 39 | 1018.7 |